sensor_id;sensor_type;location;lat;lon;timestamp;P1;durP1;ratioP1;P2;durP2;ratioP2
26516;SDS011;14190;51.342;6.338;2024-03-06T00:01:05;6.42;;;4.10;;
26516;SDS011;14190;51.342;6.338;2024-03-06T00:03:33;10.48;;;4.53;;
26516;SDS011;14190;51.342;6.338;2024-03-06T00:06:00;10.68;;;4.60;;
26516;SDS011;14190;51.342;6.338;2024-03-06T00:08:27;11.20;;;4.67;;
26516;SDS011;14190;51.342;6.338;2024-03-06T00:10:55;8.05;;;5.15;;
26516;SDS011;14190;51.342;6.338;2024-03-06T00:13:22;7.40;;;4.00;;
26516;SDS011;14190;51.342;6.338;2024-03-06T00:15:49;6.78;;;4.28;;
26516;SDS011;14190;51.342;6.338;2024-03-06T00:18:17;6.50;;;2.85;;
26516;SDS011;14190;51.342;6.338;2024-03-06T00:20:44;9.70;;;3.33;;
26516;SDS011;14190;51.342;6.338;2024-03-06T00:23:12;6.83;;;2.70;;
26516;SDS011;14190;51.342;6.338;2024-03-06T00:25:39;7.87;;;3.12;;
26516;SDS011;14190;51.342;6.338;2024-03-06T00:28:06;3.20;;;2.65;;
26516;SDS011;14190;51.342;6.338;2024-03-06T00:30:34;9.00;;;3.83;;
26516;SDS011;14190;51.342;6.338;2024-03-06T00:33:01;13.15;;;4.00;;
26516;SDS011;14190;51.342;6.338;2024-03-06T00:35:28;6.47;;;3.55;;
26516;SDS011;14190;51.342;6.338;2024-03-06T00:37:56;7.42;;;3.98;;
26516;SDS011;14190;51.342;6.338;2024-03-06T00:40:23;5.47;;;3.55;;
26516;SDS011;14190;51.342;6.338;2024-03-06T00:42:51;7.25;;;3.52;;
26516;SDS011;14190;51.342;6.338;2024-03-06T00:45:18;6.28;;;3.22;;
26516;SDS011;14190;51.342;6.338;2024-03-06T00:47:45;8.35;;;3.15;;
26516;SDS011;14190;51.342;6.338;2024-03-06T00:50:13;6.30;;;3.72;;
26516;SDS011;14190;51.342;6.338;2024-03-06T00:52:42;11.05;;;3.25;;
26516;SDS011;14190;51.342;6.338;2024-03-06T00:55:10;5.58;;;2.70;;
26516;SDS011;14190;51.342;6.338;2024-03-06T00:57:38;7.00;;;2.75;;
26516;SDS011;14190;51.342;6.338;2024-03-06T01:00:05;10.28;;;4.45;;
26516;SDS011;14190;51.342;6.338;2024-03-06T01:02:34;4.05;;;2.72;;
26516;SDS011;14190;51.342;6.338;2024-03-06T01:05:02;5.75;;;2.87;;
26516;SDS011;14190;51.342;6.338;2024-03-06T01:07:30;8.23;;;4.15;;
26516;SDS011;14190;51.342;6.338;2024-03-06T01:09:58;5.70;;;3.30;;
26516;SDS011;14190;51.342;6.338;2024-03-06T01:12:25;6.22;;;2.90;;
26516;SDS011;14190;51.342;6.338;2024-03-06T01:14:52;6.65;;;4.87;;
26516;SDS011;14190;51.342;6.338;2024-03-06T01:17:20;6.25;;;3.42;;
26516;SDS011;14190;51.342;6.338;2024-03-06T01:19:47;9.80;;;4.30;;
26516;SDS011;14190;51.342;6.338;2024-03-06T01:22:14;7.62;;;3.05;;
26516;SDS011;14190;51.342;6.338;2024-03-06T01:24:43;7.65;;;3.98;;
26516;SDS011;14190;51.342;6.338;2024-03-06T01:27:10;5.08;;;3.25;;
26516;SDS011;14190;51.342;6.338;2024-03-06T01:29:38;7.50;;;4.20;;
26516;SDS011;14190;51.342;6.338;2024-03-06T01:32:05;18.57;;;5.35;;
26516;SDS011;14190;51.342;6.338;2024-03-06T01:34:32;5.10;;;3.67;;
26516;SDS011;14190;51.342;6.338;2024-03-06T01:37:00;7.55;;;3.77;;
26516;SDS011;14190;51.342;6.338;2024-03-06T01:39:27;11.45;;;4.12;;
26516;SDS011;14190;51.342;6.338;2024-03-06T01:41:55;6.20;;;3.47;;
26516;SDS011;14190;51.342;6.338;2024-03-06T01:44:22;6.35;;;4.28;;
26516;SDS011;14190;51.342;6.338;2024-03-06T01:46:49;11.25;;;4.28;;
26516;SDS011;14190;51.342;6.338;2024-03-06T01:49:17;6.60;;;2.75;;
26516;SDS011;14190;51.342;6.338;2024-03-06T01:51:44;7.90;;;3.42;;
26516;SDS011;14190;51.342;6.338;2024-03-06T01:54:13;9.80;;;3.92;;
26516;SDS011;14190;51.342;6.338;2024-03-06T01:56:44;13.03;;;5.50;;
26516;SDS011;14190;51.342;6.338;2024-03-06T01:59:10;11.70;;;5.42;;
26516;SDS011;14190;51.342;6.338;2024-03-06T02:01:38;13.68;;;5.35;;
26516;SDS011;14190;51.342;6.338;2024-03-06T02:04:09;9.30;;;3.95;;
26516;SDS011;14190;51.342;6.338;2024-03-06T02:06:38;6.30;;;3.72;;
26516;SDS011;14190;51.342;6.338;2024-03-06T02:09:05;10.68;;;5.12;;
26516;SDS011;14190;51.342;6.338;2024-03-06T02:11:37;6.62;;;3.12;;
26516;SDS011;14190;51.342;6.338;2024-03-06T02:14:04;7.90;;;3.70;;
26516;SDS011;14190;51.342;6.338;2024-03-06T02:16:34;5.20;;;2.87;;
26516;SDS011;14190;51.342;6.338;2024-03-06T02:19:01;12.47;;;3.98;;
26516;SDS011;14190;51.342;6.338;2024-03-06T02:21:29;8.08;;;4.08;;
26516;SDS011;14190;51.342;6.338;2024-03-06T02:23:57;8.35;;;4.03;;
26516;SDS011;14190;51.342;6.338;2024-03-06T02:26:24;5.65;;;3.45;;
26516;SDS011;14190;51.342;6.338;2024-03-06T02:28:52;7.87;;;2.92;;
26516;SDS011;14190;51.342;6.338;2024-03-06T02:31:21;7.83;;;3.45;;
26516;SDS011;14190;51.342;6.338;2024-03-06T02:33:49;10.98;;;4.08;;
26516;SDS011;14190;51.342;6.338;2024-03-06T02:36:16;6.17;;;4.28;;
26516;SDS011;14190;51.342;6.338;2024-03-06T02:38:44;7.95;;;3.98;;
26516;SDS011;14190;51.342;6.338;2024-03-06T02:41:12;6.85;;;3.60;;
26516;SDS011;14190;51.342;6.338;2024-03-06T02:43:41;6.75;;;3.17;;
26516;SDS011;14190;51.342;6.338;2024-03-06T02:46:16;6.30;;;3.17;;
26516;SDS011;14190;51.342;6.338;2024-03-06T02:48:43;6.37;;;3.45;;
26516;SDS011;14190;51.342;6.338;2024-03-06T02:51:11;5.90;;;3.33;;
26516;SDS011;14190;51.342;6.338;2024-03-06T02:53:39;8.23;;;3.67;;
26516;SDS011;14190;51.342;6.338;2024-03-06T02:56:06;7.10;;;3.85;;
26516;SDS011;14190;51.342;6.338;2024-03-06T02:58:34;9.78;;;3.65;;
26516;SDS011;14190;51.342;6.338;2024-03-06T03:01:02;10.63;;;4.28;;
26516;SDS011;14190;51.342;6.338;2024-03-06T03:03:29;8.80;;;3.62;;
26516;SDS011;14190;51.342;6.338;2024-03-06T03:05:57;9.13;;;3.85;;
26516;SDS011;14190;51.342;6.338;2024-03-06T03:08:24;7.28;;;4.33;;
26516;SDS011;14190;51.342;6.338;2024-03-06T03:10:51;7.20;;;3.37;;
26516;SDS011;14190;51.342;6.338;2024-03-06T03:13:19;7.72;;;3.87;;
26516;SDS011;14190;51.342;6.338;2024-03-06T03:15:48;11.25;;;4.33;;
26516;SDS011;14190;51.342;6.338;2024-03-06T03:18:15;4.10;;;3.27;;
26516;SDS011;14190;51.342;6.338;2024-03-06T03:20:42;13.08;;;3.83;;
26516;SDS011;14190;51.342;6.338;2024-03-06T03:23:10;2.98;;;2.40;;
26516;SDS011;14190;51.342;6.338;2024-03-06T03:25:39;4.53;;;2.70;;
26516;SDS011;14190;51.342;6.338;2024-03-06T03:28:07;5.70;;;3.30;;
26516;SDS011;14190;51.342;6.338;2024-03-06T03:30:36;10.28;;;5.08;;
26516;SDS011;14190;51.342;6.338;2024-03-06T03:33:03;6.22;;;4.05;;
26516;SDS011;14190;51.342;6.338;2024-03-06T03:35:31;7.30;;;4.42;;
26516;SDS011;14190;51.342;6.338;2024-03-06T03:37:58;8.33;;;3.17;;
26516;SDS011;14190;51.342;6.338;2024-03-06T03:40:26;4.28;;;3.45;;
26516;SDS011;14190;51.342;6.338;2024-03-06T03:42:53;6.92;;;3.58;;
26516;SDS011;14190;51.342;6.338;2024-03-06T03:45:20;5.40;;;3.35;;
26516;SDS011;14190;51.342;6.338;2024-03-06T03:47:48;5.62;;;2.98;;
26516;SDS011;14190;51.342;6.338;2024-03-06T03:50:15;7.53;;;4.00;;
26516;SDS011;14190;51.342;6.338;2024-03-06T03:52:42;4.95;;;2.80;;
26516;SDS011;14190;51.342;6.338;2024-03-06T03:55:10;7.60;;;3.42;;
26516;SDS011;14190;51.342;6.338;2024-03-06T03:57:37;5.83;;;2.87;;
26516;SDS011;14190;51.342;6.338;2024-03-06T04:00:05;4.80;;;2.92;;
26516;SDS011;14190;51.342;6.338;2024-03-06T04:02:37;3.70;;;2.65;;
26516;SDS011;14190;51.342;6.338;2024-03-06T04:05:04;8.20;;;4.15;;
26516;SDS011;14190;51.342;6.338;2024-03-06T04:07:32;8.50;;;3.47;;
26516;SDS011;14190;51.342;6.338;2024-03-06T04:09:59;9.03;;;3.95;;
26516;SDS011;14190;51.342;6.338;2024-03-06T04:12:27;7.62;;;3.00;;
26516;SDS011;14190;51.342;6.338;2024-03-06T04:14:54;7.45;;;3.87;;
26516;SDS011;14190;51.342;6.338;2024-03-06T04:17:22;11.55;;;3.70;;
26516;SDS011;14190;51.342;6.338;2024-03-06T04:19:49;8.63;;;3.67;;
26516;SDS011;14190;51.342;6.338;2024-03-06T04:22:19;7.70;;;4.00;;
26516;SDS011;14190;51.342;6.338;2024-03-06T04:24:47;7.35;;;4.28;;
26516;SDS011;14190;51.342;6.338;2024-03-06T04:27:14;7.10;;;4.10;;
26516;SDS011;14190;51.342;6.338;2024-03-06T04:29:43;6.33;;;3.62;;
26516;SDS011;14190;51.342;6.338;2024-03-06T04:32:10;14.53;;;5.33;;
26516;SDS011;14190;51.342;6.338;2024-03-06T04:34:37;13.68;;;5.60;;
26516;SDS011;14190;51.342;6.338;2024-03-06T04:37:05;7.67;;;3.33;;
26516;SDS011;14190;51.342;6.338;2024-03-06T04:39:32;10.43;;;4.78;;
26516;SDS011;14190;51.342;6.338;2024-03-06T04:42:00;8.65;;;5.08;;
26516;SDS011;14190;51.342;6.338;2024-03-06T04:44:27;8.55;;;4.25;;
26516;SDS011;14190;51.342;6.338;2024-03-06T04:46:55;12.20;;;5.40;;
26516;SDS011;14190;51.342;6.338;2024-03-06T04:49:22;12.13;;;5.37;;
26516;SDS011;14190;51.342;6.338;2024-03-06T04:51:50;10.60;;;4.97;;
26516;SDS011;14190;51.342;6.338;2024-03-06T04:54:17;7.95;;;4.28;;
26516;SDS011;14190;51.342;6.338;2024-03-06T04:56:44;10.23;;;4.53;;
26516;SDS011;14190;51.342;6.338;2024-03-06T04:59:12;11.38;;;4.37;;
26516;SDS011;14190;51.342;6.338;2024-03-06T05:01:40;9.33;;;4.15;;
26516;SDS011;14190;51.342;6.338;2024-03-06T05:04:07;13.13;;;4.00;;
26516;SDS011;14190;51.342;6.338;2024-03-06T05:06:53;10.65;;;4.20;;
26516;SDS011;14190;51.342;6.338;2024-03-06T05:09:41;11.20;;;5.17;;
26516;SDS011;14190;51.342;6.338;2024-03-06T05:12:27;17.17;;;4.67;;
26516;SDS011;14190;51.342;6.338;2024-03-06T05:15:14;7.67;;;4.20;;
26516;SDS011;14190;51.342;6.338;2024-03-06T05:18:00;6.12;;;4.37;;
26516;SDS011;14190;51.342;6.338;2024-03-06T05:20:46;4.92;;;3.17;;
26516;SDS011;14190;51.342;6.338;2024-03-06T05:23:32;8.33;;;4.72;;
26516;SDS011;14190;51.342;6.338;2024-03-06T05:26:19;13.93;;;4.75;;
26516;SDS011;14190;51.342;6.338;2024-03-06T05:29:07;5.22;;;3.40;;
26516;SDS011;14190;51.342;6.338;2024-03-06T05:31:53;5.22;;;3.22;;
26516;SDS011;14190;51.342;6.338;2024-03-06T05:34:41;9.98;;;3.50;;
26516;SDS011;14190;51.342;6.338;2024-03-06T05:37:27;6.20;;;2.98;;
26516;SDS011;14190;51.342;6.338;2024-03-06T05:40:14;6.37;;;4.22;;
26516;SDS011;14190;51.342;6.338;2024-03-06T05:42:59;8.65;;;5.28;;
26516;SDS011;14190;51.342;6.338;2024-03-06T05:45:46;10.05;;;5.50;;
26516;SDS011;14190;51.342;6.338;2024-03-06T05:48:33;10.55;;;3.75;;
26516;SDS011;14190;51.342;6.338;2024-03-06T05:51:19;7.70;;;3.47;;
26516;SDS011;14190;51.342;6.338;2024-03-06T05:54:06;8.13;;;4.03;;
26516;SDS011;14190;51.342;6.338;2024-03-06T05:56:53;6.72;;;3.02;;
26516;SDS011;14190;51.342;6.338;2024-03-06T05:59:40;7.83;;;4.60;;
26516;SDS011;14190;51.342;6.338;2024-03-06T06:02:07;8.08;;;4.35;;
26516;SDS011;14190;51.342;6.338;2024-03-06T06:04:34;10.63;;;4.28;;
26516;SDS011;14190;51.342;6.338;2024-03-06T06:07:02;7.65;;;3.20;;
26516;SDS011;14190;51.342;6.338;2024-03-06T06:09:29;9.25;;;3.47;;
26516;SDS011;14190;51.342;6.338;2024-03-06T06:11:58;7.92;;;4.67;;
26516;SDS011;14190;51.342;6.338;2024-03-06T06:14:26;5.03;;;3.33;;
26516;SDS011;14190;51.342;6.338;2024-03-06T06:16:56;10.45;;;3.95;;
26516;SDS011;14190;51.342;6.338;2024-03-06T06:19:24;3.77;;;2.55;;
26516;SDS011;14190;51.342;6.338;2024-03-06T06:21:52;5.55;;;3.33;;
26516;SDS011;14190;51.342;6.338;2024-03-06T06:24:20;5.37;;;3.80;;
26516;SDS011;14190;51.342;6.338;2024-03-06T06:26:47;5.90;;;2.92;;
26516;SDS011;14190;51.342;6.338;2024-03-06T06:29:14;6.00;;;3.30;;
26516;SDS011;14190;51.342;6.338;2024-03-06T06:31:42;9.78;;;4.30;;
26516;SDS011;14190;51.342;6.338;2024-03-06T06:34:10;4.37;;;3.22;;
26516;SDS011;14190;51.342;6.338;2024-03-06T06:36:38;5.28;;;2.83;;
26516;SDS011;14190;51.342;6.338;2024-03-06T06:39:07;5.78;;;2.58;;
26516;SDS011;14190;51.342;6.338;2024-03-06T06:41:34;9.75;;;4.20;;
26516;SDS011;14190;51.342;6.338;2024-03-06T06:44:02;6.72;;;3.12;;
26516;SDS011;14190;51.342;6.338;2024-03-06T06:46:29;5.55;;;3.47;;
26516;SDS011;14190;51.342;6.338;2024-03-06T06:48:57;5.83;;;3.25;;
26516;SDS011;14190;51.342;6.338;2024-03-06T06:51:25;8.65;;;5.65;;
26516;SDS011;14190;51.342;6.338;2024-03-06T06:53:52;8.13;;;3.95;;
26516;SDS011;14190;51.342;6.338;2024-03-06T06:56:21;3.12;;;2.77;;
26516;SDS011;14190;51.342;6.338;2024-03-06T06:58:50;10.30;;;3.85;;
26516;SDS011;14190;51.342;6.338;2024-03-06T07:01:17;6.90;;;4.75;;
26516;SDS011;14190;51.342;6.338;2024-03-06T07:03:45;7.65;;;3.70;;
26516;SDS011;14190;51.342;6.338;2024-03-06T07:06:13;8.83;;;3.90;;
26516;SDS011;14190;51.342;6.338;2024-03-06T07:08:40;7.55;;;4.62;;
26516;SDS011;14190;51.342;6.338;2024-03-06T07:11:08;6.67;;;3.30;;
26516;SDS011;14190;51.342;6.338;2024-03-06T07:13:37;6.03;;;3.12;;
26516;SDS011;14190;51.342;6.338;2024-03-06T07:16:04;5.53;;;3.70;;
26516;SDS011;14190;51.342;6.338;2024-03-06T07:18:32;5.25;;;3.05;;
26516;SDS011;14190;51.342;6.338;2024-03-06T07:20:59;5.87;;;3.85;;
26516;SDS011;14190;51.342;6.338;2024-03-06T07:23:27;5.65;;;2.67;;
26516;SDS011;14190;51.342;6.338;2024-03-06T07:25:54;9.20;;;3.00;;
26516;SDS011;14190;51.342;6.338;2024-03-06T07:28:23;7.72;;;2.92;;
26516;SDS011;14190;51.342;6.338;2024-03-06T07:30:52;5.72;;;2.80;;
26516;SDS011;14190;51.342;6.338;2024-03-06T07:33:19;6.90;;;3.27;;
26516;SDS011;14190;51.342;6.338;2024-03-06T07:35:47;9.20;;;3.95;;
26516;SDS011;14190;51.342;6.338;2024-03-06T07:38:14;7.30;;;3.37;;
26516;SDS011;14190;51.342;6.338;2024-03-06T07:40:43;9.10;;;4.67;;
26516;SDS011;14190;51.342;6.338;2024-03-06T07:43:10;10.53;;;4.00;;
26516;SDS011;14190;51.342;6.338;2024-03-06T07:45:40;5.43;;;2.87;;
26516;SDS011;14190;51.342;6.338;2024-03-06T07:48:07;11.03;;;3.72;;
26516;SDS011;14190;51.342;6.338;2024-03-06T07:50:36;5.83;;;2.50;;
26516;SDS011;14190;51.342;6.338;2024-03-06T07:53:04;3.95;;;2.95;;
26516;SDS011;14190;51.342;6.338;2024-03-06T07:55:32;6.37;;;3.45;;
26516;SDS011;14190;51.342;6.338;2024-03-06T07:57:59;8.50;;;3.85;;
26516;SDS011;14190;51.342;6.338;2024-03-06T08:00:26;11.50;;;5.12;;
26516;SDS011;14190;51.342;6.338;2024-03-06T08:02:54;7.95;;;4.08;;
26516;SDS011;14190;51.342;6.338;2024-03-06T08:05:21;7.80;;;4.60;;
26516;SDS011;14190;51.342;6.338;2024-03-06T08:07:48;7.65;;;4.37;;
26516;SDS011;14190;51.342;6.338;2024-03-06T08:10:16;5.67;;;4.53;;
26516;SDS011;14190;51.342;6.338;2024-03-06T08:12:45;5.85;;;3.45;;
26516;SDS011;14190;51.342;6.338;2024-03-06T08:15:14;5.37;;;4.08;;
26516;SDS011;14190;51.342;6.338;2024-03-06T08:17:42;4.78;;;3.15;;
26516;SDS011;14190;51.342;6.338;2024-03-06T08:20:10;4.42;;;2.70;;
26516;SDS011;14190;51.342;6.338;2024-03-06T08:22:38;2.77;;;2.52;;
26516;SDS011;14190;51.342;6.338;2024-03-06T08:25:12;7.65;;;3.22;;
26516;SDS011;14190;51.342;6.338;2024-03-06T08:27:36;10.83;;;2.97;;
26516;SDS011;14190;51.342;6.338;2024-03-06T08:30:03;6.47;;;1.85;;
26516;SDS011;14190;51.342;6.338;2024-03-06T08:32:31;4.95;;;3.00;;
26516;SDS011;14190;51.342;6.338;2024-03-06T08:35:04;6.12;;;3.52;;
26516;SDS011;14190;51.342;6.338;2024-03-06T08:37:37;5.58;;;2.95;;
26516;SDS011;14190;51.342;6.338;2024-03-06T08:40:05;11.28;;;4.50;;
26516;SDS011;14190;51.342;6.338;2024-03-06T08:42:38;10.20;;;4.70;;
26516;SDS011;14190;51.342;6.338;2024-03-06T08:45:05;10.15;;;4.70;;
26516;SDS011;14190;51.342;6.338;2024-03-06T08:47:34;9.88;;;4.97;;
26516;SDS011;14190;51.342;6.338;2024-03-06T08:50:02;6.30;;;3.27;;
26516;SDS011;14190;51.342;6.338;2024-03-06T08:52:30;6.72;;;3.02;;
26516;SDS011;14190;51.342;6.338;2024-03-06T08:55:03;4.72;;;2.35;;
26516;SDS011;14190;51.342;6.338;2024-03-06T08:57:32;6.12;;;2.80;;
26516;SDS011;14190;51.342;6.338;2024-03-06T09:00:00;6.70;;;2.87;;
26516;SDS011;14190;51.342;6.338;2024-03-06T09:02:27;26.00;;;3.50;;
26516;SDS011;14190;51.342;6.338;2024-03-06T09:04:55;3.17;;;2.87;;
26516;SDS011;14190;51.342;6.338;2024-03-06T09:07:22;11.08;;;3.20;;
26516;SDS011;14190;51.342;6.338;2024-03-06T09:09:52;7.55;;;4.80;;
26516;SDS011;14190;51.342;6.338;2024-03-06T09:12:20;5.12;;;3.92;;
26516;SDS011;14190;51.342;6.338;2024-03-06T09:14:47;2.65;;;1.27;;
26516;SDS011;14190;51.342;6.338;2024-03-06T09:17:15;3.45;;;2.30;;
26516;SDS011;14190;51.342;6.338;2024-03-06T09:19:42;4.25;;;2.45;;
26516;SDS011;14190;51.342;6.338;2024-03-06T09:22:09;2.90;;;1.87;;
26516;SDS011;14190;51.342;6.338;2024-03-06T09:24:37;3.00;;;1.80;;
26516;SDS011;14190;51.342;6.338;2024-03-06T09:27:07;2.85;;;1.57;;
26516;SDS011;14190;51.342;6.338;2024-03-06T09:29:34;6.70;;;3.50;;
26516;SDS011;14190;51.342;6.338;2024-03-06T09:32:02;4.45;;;1.98;;
26516;SDS011;14190;51.342;6.338;2024-03-06T09:34:29;3.40;;;2.25;;
26516;SDS011;14190;51.342;6.338;2024-03-06T09:36:57;4.80;;;2.65;;
26516;SDS011;14190;51.342;6.338;2024-03-06T09:39:24;8.25;;;4.62;;
26516;SDS011;14190;51.342;6.338;2024-03-06T09:41:52;7.42;;;4.95;;
26516;SDS011;14190;51.342;6.338;2024-03-06T09:44:22;3.10;;;1.87;;
26516;SDS011;14190;51.342;6.338;2024-03-06T09:46:49;3.77;;;2.22;;
26516;SDS011;14190;51.342;6.338;2024-03-06T09:49:19;1.90;;;1.45;;
26516;SDS011;14190;51.342;6.338;2024-03-06T09:51:47;3.08;;;1.92;;
26516;SDS011;14190;51.342;6.338;2024-03-06T09:54:17;3.75;;;2.02;;
26516;SDS011;14190;51.342;6.338;2024-03-06T09:56:44;4.75;;;2.45;;
26516;SDS011;14190;51.342;6.338;2024-03-06T09:59:12;4.53;;;1.62;;
26516;SDS011;14190;51.342;6.338;2024-03-06T10:01:49;7.20;;;2.22;;
26516;SDS011;14190;51.342;6.338;2024-03-06T10:04:22;6.95;;;2.47;;
26516;SDS011;14190;51.342;6.338;2024-03-06T10:06:55;4.35;;;1.90;;
26516;SDS011;14190;51.342;6.338;2024-03-06T10:09:23;2.65;;;1.95;;
26516;SDS011;14190;51.342;6.338;2024-03-06T10:11:50;3.27;;;2.47;;
26516;SDS011;14190;51.342;6.338;2024-03-06T10:14:20;3.20;;;1.80;;
26516;SDS011;14190;51.342;6.338;2024-03-06T10:16:54;5.65;;;2.37;;
26516;SDS011;14190;51.342;6.338;2024-03-06T10:19:23;2.55;;;1.77;;
26516;SDS011;14190;51.342;6.338;2024-03-06T10:21:51;2.77;;;1.67;;
26516;SDS011;14190;51.342;6.338;2024-03-06T10:24:21;4.95;;;2.60;;
26516;SDS011;14190;51.342;6.338;2024-03-06T10:26:50;3.37;;;3.08;;
26516;SDS011;14190;51.342;6.338;2024-03-06T10:29:20;3.58;;;3.08;;
26516;SDS011;14190;51.342;6.338;2024-03-06T10:31:51;5.67;;;2.12;;
26516;SDS011;14190;51.342;6.338;2024-03-06T10:34:19;4.37;;;2.20;;
26516;SDS011;14190;51.342;6.338;2024-03-06T10:36:52;11.75;;;2.65;;
26516;SDS011;14190;51.342;6.338;2024-03-06T10:39:16;2.62;;;1.87;;
26516;SDS011;14190;51.342;6.338;2024-03-06T10:41:46;8.55;;;2.50;;
26516;SDS011;14190;51.342;6.338;2024-03-06T10:44:13;6.55;;;2.45;;
26516;SDS011;14190;51.342;6.338;2024-03-06T10:46:44;7.08;;;2.62;;
26516;SDS011;14190;51.342;6.338;2024-03-06T10:49:13;5.37;;;2.15;;
26516;SDS011;14190;51.342;6.338;2024-03-06T10:51:41;6.62;;;2.95;;
26516;SDS011;14190;51.342;6.338;2024-03-06T10:54:11;5.33;;;2.30;;
26516;SDS011;14190;51.342;6.338;2024-03-06T10:56:41;3.15;;;2.00;;
26516;SDS011;14190;51.342;6.338;2024-03-06T10:59:11;7.92;;;2.22;;
26516;SDS011;14190;51.342;6.338;2024-03-06T11:01:40;3.62;;;2.45;;
26516;SDS011;14190;51.342;6.338;2024-03-06T11:04:09;3.83;;;2.05;;
26516;SDS011;14190;51.342;6.338;2024-03-06T11:06:38;4.20;;;1.95;;
26516;SDS011;14190;51.342;6.338;2024-03-06T11:09:05;5.78;;;3.33;;
26516;SDS011;14190;51.342;6.338;2024-03-06T11:11:46;4.85;;;2.22;;
26516;SDS011;14190;51.342;6.338;2024-03-06T11:14:03;6.05;;;2.83;;
26516;SDS011;14190;51.342;6.338;2024-03-06T11:16:31;5.65;;;2.92;;
26516;SDS011;14190;51.342;6.338;2024-03-06T11:19:06;5.80;;;2.08;;
26516;SDS011;14190;51.342;6.338;2024-03-06T11:21:34;3.22;;;2.02;;
26516;SDS011;14190;51.342;6.338;2024-03-06T11:26:43;3.60;;;2.58;;
26516;SDS011;14190;51.342;6.338;2024-03-06T11:29:15;4.03;;;1.92;;
26516;SDS011;14190;51.342;6.338;2024-03-06T11:31:57;6.50;;;2.58;;
26516;SDS011;14190;51.342;6.338;2024-03-06T11:34:27;3.95;;;2.10;;
26516;SDS011;14190;51.342;6.338;2024-03-06T11:36:56;8.28;;;2.70;;
26516;SDS011;14190;51.342;6.338;2024-03-06T11:39:27;7.90;;;2.83;;
26516;SDS011;14190;51.342;6.338;2024-03-06T11:41:53;3.72;;;2.42;;
26516;SDS011;14190;51.342;6.338;2024-03-06T11:44:21;7.25;;;2.87;;
26516;SDS011;14190;51.342;6.338;2024-03-06T11:46:50;8.03;;;3.92;;
26516;SDS011;14190;51.342;6.338;2024-03-06T11:49:23;3.00;;;2.33;;
26516;SDS011;14190;51.342;6.338;2024-03-06T11:51:51;4.90;;;1.85;;
26516;SDS011;14190;51.342;6.338;2024-03-06T11:54:19;2.72;;;1.85;;
26516;SDS011;14190;51.342;6.338;2024-03-06T11:56:56;4.28;;;2.58;;
26516;SDS011;14190;51.342;6.338;2024-03-06T11:59:30;5.70;;;2.92;;
26516;SDS011;14190;51.342;6.338;2024-03-06T12:01:53;2.92;;;1.42;;
26516;SDS011;14190;51.342;6.338;2024-03-06T12:04:21;3.95;;;1.92;;
26516;SDS011;14190;51.342;6.338;2024-03-06T12:06:49;4.40;;;2.37;;
26516;SDS011;14190;51.342;6.338;2024-03-06T12:09:19;1.62;;;1.40;;
26516;SDS011;14190;51.342;6.338;2024-03-06T12:11:46;2.77;;;1.37;;
26516;SDS011;14190;51.342;6.338;2024-03-06T12:14:17;2.08;;;1.35;;
26516;SDS011;14190;51.342;6.338;2024-03-06T12:16:54;4.58;;;2.15;;
26516;SDS011;14190;51.342;6.338;2024-03-06T12:19:22;6.30;;;2.83;;
26516;SDS011;14190;51.342;6.338;2024-03-06T12:21:50;2.22;;;1.35;;
26516;SDS011;14190;51.342;6.338;2024-03-06T12:24:18;10.05;;;4.17;;
26516;SDS011;14190;51.342;6.338;2024-03-06T12:26:45;2.52;;;1.35;;
26516;SDS011;14190;51.342;6.338;2024-03-06T12:29:16;3.70;;;1.77;;
26516;SDS011;14190;51.342;6.338;2024-03-06T12:31:43;3.87;;;1.55;;
26516;SDS011;14190;51.342;6.338;2024-03-06T12:34:13;4.97;;;1.80;;
26516;SDS011;14190;51.342;6.338;2024-03-06T12:36:39;3.90;;;1.42;;
26516;SDS011;14190;51.342;6.338;2024-03-06T12:39:07;11.50;;;3.22;;
26516;SDS011;14190;51.342;6.338;2024-03-06T12:41:36;2.58;;;1.32;;
26516;SDS011;14190;51.342;6.338;2024-03-06T12:44:04;4.05;;;2.30;;
26516;SDS011;14190;51.342;6.338;2024-03-06T12:46:33;4.17;;;1.77;;
26516;SDS011;14190;51.342;6.338;2024-03-06T12:49:01;2.70;;;1.87;;
26516;SDS011;14190;51.342;6.338;2024-03-06T12:51:28;3.35;;;1.50;;
26516;SDS011;14190;51.342;6.338;2024-03-06T12:53:55;3.20;;;2.47;;
26516;SDS011;14190;51.342;6.338;2024-03-06T12:56:23;4.37;;;2.67;;
26516;SDS011;14190;51.342;6.338;2024-03-06T12:58:51;3.67;;;1.30;;
26516;SDS011;14190;51.342;6.338;2024-03-06T13:01:18;5.70;;;3.80;;
26516;SDS011;14190;51.342;6.338;2024-03-06T13:03:46;3.35;;;2.47;;
26516;SDS011;14190;51.342;6.338;2024-03-06T13:06:14;4.95;;;1.50;;
26516;SDS011;14190;51.342;6.338;2024-03-06T13:08:41;3.87;;;1.67;;
26516;SDS011;14190;51.342;6.338;2024-03-06T13:11:08;4.58;;;2.12;;
26516;SDS011;14190;51.342;6.338;2024-03-06T13:13:36;3.87;;;1.77;;
26516;SDS011;14190;51.342;6.338;2024-03-06T13:16:03;3.25;;;1.72;;
26516;SDS011;14190;51.342;6.338;2024-03-06T13:18:31;2.17;;;1.75;;
26516;SDS011;14190;51.342;6.338;2024-03-06T13:20:58;1.80;;;1.37;;
26516;SDS011;14190;51.342;6.338;2024-03-06T13:23:27;2.52;;;0.90;;
26516;SDS011;14190;51.342;6.338;2024-03-06T13:25:54;6.35;;;2.42;;
26516;SDS011;14190;51.342;6.338;2024-03-06T13:28:21;5.97;;;2.05;;
26516;SDS011;14190;51.342;6.338;2024-03-06T13:30:50;4.17;;;1.85;;
26516;SDS011;14190;51.342;6.338;2024-03-06T13:33:17;4.92;;;2.30;;
26516;SDS011;14190;51.342;6.338;2024-03-06T13:35:44;7.90;;;2.42;;
26516;SDS011;14190;51.342;6.338;2024-03-06T13:38:12;4.55;;;2.05;;
26516;SDS011;14190;51.342;6.338;2024-03-06T13:40:39;5.15;;;1.57;;
26516;SDS011;14190;51.342;6.338;2024-03-06T13:43:06;2.83;;;1.45;;
26516;SDS011;14190;51.342;6.338;2024-03-06T13:45:34;1.67;;;1.47;;
26516;SDS011;14190;51.342;6.338;2024-03-06T13:48:13;7.17;;;2.30;;
26516;SDS011;14190;51.342;6.338;2024-03-06T13:50:35;3.42;;;2.15;;
26516;SDS011;14190;51.342;6.338;2024-03-06T13:53:03;7.50;;;2.98;;
26516;SDS011;14190;51.342;6.338;2024-03-06T13:55:32;5.20;;;2.72;;
26516;SDS011;14190;51.342;6.338;2024-03-06T13:58:01;5.05;;;1.85;;
26516;SDS011;14190;51.342;6.338;2024-03-06T14:00:29;7.20;;;3.20;;
26516;SDS011;14190;51.342;6.338;2024-03-06T14:02:56;3.70;;;2.12;;
26516;SDS011;14190;51.342;6.338;2024-03-06T14:05:24;4.42;;;1.80;;
26516;SDS011;14190;51.342;6.338;2024-03-06T14:07:51;4.20;;;2.83;;
26516;SDS011;14190;51.342;6.338;2024-03-06T14:10:19;3.37;;;1.82;;
26516;SDS011;14190;51.342;6.338;2024-03-06T14:12:48;2.72;;;2.02;;
26516;SDS011;14190;51.342;6.338;2024-03-06T14:15:19;11.10;;;3.85;;
26516;SDS011;14190;51.342;6.338;2024-03-06T14:17:46;2.10;;;1.70;;
26516;SDS011;14190;51.342;6.338;2024-03-06T14:20:14;2.67;;;1.80;;
26516;SDS011;14190;51.342;6.338;2024-03-06T14:22:44;8.63;;;2.85;;
26516;SDS011;14190;51.342;6.338;2024-03-06T14:25:12;1.77;;;1.50;;
26516;SDS011;14190;51.342;6.338;2024-03-06T14:27:39;4.22;;;2.33;;
26516;SDS011;14190;51.342;6.338;2024-03-06T14:30:06;2.83;;;1.70;;
26516;SDS011;14190;51.342;6.338;2024-03-06T14:32:34;5.55;;;2.30;;
26516;SDS011;14190;51.342;6.338;2024-03-06T14:35:02;6.08;;;1.87;;
26516;SDS011;14190;51.342;6.338;2024-03-06T14:37:29;3.42;;;1.60;;
26516;SDS011;14190;51.342;6.338;2024-03-06T14:39:56;4.67;;;1.90;;
26516;SDS011;14190;51.342;6.338;2024-03-06T14:42:24;9.13;;;2.47;;
26516;SDS011;14190;51.342;6.338;2024-03-06T14:44:51;6.83;;;2.60;;
26516;SDS011;14190;51.342;6.338;2024-03-06T14:47:19;3.98;;;2.12;;
26516;SDS011;14190;51.342;6.338;2024-03-06T14:49:46;5.65;;;2.77;;
26516;SDS011;14190;51.342;6.338;2024-03-06T14:52:13;4.28;;;1.57;;
26516;SDS011;14190;51.342;6.338;2024-03-06T14:54:41;4.80;;;1.80;;
26516;SDS011;14190;51.342;6.338;2024-03-06T14:57:09;6.35;;;2.52;;
26516;SDS011;14190;51.342;6.338;2024-03-06T14:59:37;4.97;;;1.70;;